Time;durP1;ratioP1;P1;durP2;ratioP2;P2;SDS_P1;SDS_P2;PMS_P1;PMS_P2;Temp;Humidity;BMP_temperature;BMP_pressure;BME280_temperature;BME280_humidity;BME280_pressure;Samples;Min_cycle;Max_cycle;Signal;HPM_P1;HPM_P2
2022/08/30 03:43:29;;;;;;;6.95;5.00;;;;;;;18.90;100.00;100578.69;6515459;26;20202;31
2022/08/30 03:46:33;;;;;;;9.15;5.72;;;;;;;18.88;100.00;100575.34;6578976;27;33679;-86
2022/08/30 03:49:38;;;;;;;8.98;5.72;;;;;;;18.87;100.00;100585.44;6579309;27;34400;-86
2022/08/30 03:52:44;;;;;;;6.68;5.20;;;;;;;18.85;100.00;100586.72;6591228;27;150971;-85
2022/08/30 03:55:47;;;;;;;8.35;5.25;;;;;;;18.82;100.00;100582.53;6597881;27;35352;-86
2022/08/30 03:58:50;;;;;;;8.57;6.35;;;;;;;18.80;100.00;100590.13;6597733;27;34155;-86
2022/08/30 04:01:53;;;;;;;8.45;5.68;;;;;;;18.78;100.00;100582.16;6580069;27;34094;-86
2022/08/30 04:04:56;;;;;;;7.10;5.37;;;;;;;18.79;100.00;100588.47;6580393;27;34837;-86
2022/08/30 04:07:58;;;;;;;8.48;5.75;;;;;;;18.76;100.00;100592.47;6584756;27;34553;-87
2022/08/30 04:11:01;;;;;;;11.23;5.93;;;;;;;18.77;100.00;100593.28;6580557;27;33918;-87
2022/08/30 04:14:06;;;;;;;8.40;5.40;;;;;;;18.73;100.00;100592.91;6578711;27;35478;-87
2022/08/30 04:17:15;;;;;;;6.75;5.30;;;;;;;18.72;100.00;100587.66;6558903;27;34032;-86
2022/08/30 04:20:18;;;;;;;8.23;6.00;;;;;;;18.73;100.00;100605.69;6582182;27;34628;-87
2022/08/30 04:23:20;;;;;;;10.73;5.82;;;;;;;18.73;100.00;100613.87;6593592;27;34009;-86
2022/08/30 04:26:23;;;;;;;8.88;6.15;;;;;;;18.71;100.00;100611.38;6582755;27;34260;-87
2022/08/30 04:29:32;;;;;;;10.68;6.62;;;;;;;18.68;100.00;100627.34;6578829;27;33765;-87
2022/08/30 04:32:35;;;;;;;10.55;6.75;;;;;;;18.66;100.00;100627.59;6578613;27;34773;-86
2022/08/30 04:35:43;;;;;;;9.93;6.57;;;;;;;18.67;100.00;100626.53;6578588;27;34021;-86
2022/08/30 04:38:46;;;;;;;9.57;5.95;;;;;;;18.73;100.00;100641.16;6578532;27;34281;-87
2022/08/30 04:41:48;;;;;;;9.52;6.47;;;;;;;18.79;100.00;100637.56;6578601;27;34575;-86
2022/08/30 04:44:51;;;;;;;11.38;6.32;;;;;;;18.86;100.00;100646.50;6579802;27;35200;-86
2022/08/30 04:47:54;;;;;;;7.78;5.72;;;;;;;18.97;100.00;100658.56;6579847;27;33830;-86
2022/08/30 04:50:58;;;;;;;9.50;5.97;;;;;;;19.06;100.00;100651.72;6579128;27;34003;-87
2022/08/30 04:54:01;;;;;;;6.97;5.45;;;;;;;19.16;100.00;100656.66;6577661;27;34388;-87
2022/08/30 04:57:05;;;;;;;10.73;5.82;;;;;;;19.32;100.00;100657.97;6578358;27;34625;-86
2022/08/30 05:00:11;;;;;;;10.70;6.05;;;;;;;19.44;100.00;100656.94;6578606;27;33822;-87
2022/08/30 05:03:14;;;;;;;9.55;6.03;;;;;;;19.51;100.00;100670.53;6558986;27;33158;-86
2022/08/30 05:06:19;;;;;;;8.57;5.28;;;;;;;19.62;100.00;100666.19;6578519;27;33864;-86
2022/08/30 05:09:21;;;;;;;7.57;5.82;;;;;;;19.73;100.00;100667.34;6579062;27;33515;-86
2022/08/30 05:12:24;;;;;;;8.90;5.37;;;;;;;19.83;100.00;100670.31;6578922;27;34103;-87
2022/08/30 05:15:27;;;;;;;7.47;5.80;;;;;;;19.91;100.00;100668.09;6579103;27;33721;-86
2022/08/30 05:18:30;;;;;;;9.63;5.65;;;;;;;19.96;100.00;100672.88;6579279;27;33549;-87
2022/08/30 05:21:33;;;;;;;7.28;5.32;;;;;;;20.04;100.00;100671.72;6578703;27;34053;-86
2022/08/30 05:24:36;;;;;;;6.90;4.72;;;;;;;20.19;100.00;100665.81;6578939;27;33797;-86
2022/08/30 05:27:39;;;;;;;6.12;4.90;;;;;;;20.30;100.00;100665.84;6579587;27;34128;-86
2022/08/30 05:30:42;;;;;;;7.53;5.32;;;;;;;20.28;100.00;100667.97;6590871;27;34801;-86
2022/08/30 05:33:45;;;;;;;7.15;5.37;;;;;;;20.31;100.00;100672.97;6590130;27;34088;-86
2022/08/30 05:36:47;;;;;;;7.55;5.37;;;;;;;20.36;100.00;100664.06;6581046;27;34074;-87
2022/08/30 05:39:50;;;;;;;6.00;4.78;;;;;;;20.45;100.00;100667.31;6557400;27;32287;-87
2022/08/30 05:42:53;;;;;;;5.68;4.55;;;;;;;20.52;100.00;100671.59;6578865;27;34385;-90
2022/08/30 05:46:05;;;;;;;5.93;4.80;;;;;;;20.63;100.00;100669.12;6578156;27;35034;-90
2022/08/30 05:49:08;;;;;;;7.07;5.10;;;;;;;20.64;98.30;100674.34;6578145;27;34104;-86
2022/08/30 05:52:13;;;;;;;6.82;5.12;;;;;;;;;;6578328;27;34091;-86
2022/08/30 05:55:17;;;;;;;6.75;4.62;;;;;;;20.81;97.36;100682.69;6578559;27;34475;-85
2022/08/30 05:58:20;;;;;;;7.62;5.22;;;;;;;20.86;96.16;100680.06;6578625;27;34841;-86
2022/08/30 06:01:30;;;;;;;6.37;4.82;;;;;;;20.99;98.27;100679.81;6557964;27;33688;-86
2022/08/30 06:04:35;;;;;;;7.55;5.18;;;;;;;21.08;96.85;100684.94;6598142;27;34365;-85
2022/08/30 06:07:37;;;;;;;7.65;4.70;;;;;;;21.14;95.71;100682.06;6592750;27;35385;-85
2022/08/30 06:10:40;;;;;;;6.43;5.20;;;;;;;21.17;95.37;100684.31;6559823;27;33120;-85
2022/08/30 06:13:44;;;;;;;10.23;5.43;;;;;;;21.26;99.44;100674.69;6579131;27;34039;-85
2022/08/30 06:16:47;;;;;;;8.38;5.82;;;;;;;21.26;100.00;100682.03;6579769;27;32608;-87
2022/08/30 06:19:50;;;;;;;8.60;6.15;;;;;;;21.19;100.00;100681.34;6579047;27;34919;-85
2022/08/30 06:22:53;;;;;;;10.18;6.60;;;;;;;21.13;100.00;100685.88;6579230;27;34751;-85
2022/08/30 06:25:56;;;;;;;9.88;6.80;;;;;;;21.24;100.00;100678.72;6579239;27;34413;-85
2022/08/30 06:29:01;;;;;;;8.52;6.62;;;;;;;21.42;100.00;100685.97;6560435;27;32773;-85
2022/08/30 06:32:04;;;;;;;12.37;7.80;;;;;;;21.54;99.40;100696.91;6582634;27;34944;-85
2022/08/30 06:35:07;;;;;;;11.77;6.22;;;;;;;21.74;97.51;100686.34;6582904;27;34057;-85
2022/08/30 06:38:09;;;;;;;9.68;6.40;;;;;;;21.88;96.45;100685.00;6578761;27;33506;-85
2022/08/30 06:41:18;;;;;;;8.27;5.95;;;;;;;21.96;92.29;100678.25;6559334;27;34498;-85
2022/08/30 06:44:20;;;;;;;5.30;4.80;;;;;;;22.02;91.55;100674.53;6578478;27;34209;-85
2022/08/30 06:47:23;;;;;;;12.00;5.18;;;;;;;21.95;89.81;100679.34;6578815;27;34139;-85
2022/08/30 06:50:26;;;;;;;7.90;5.07;;;;;;;22.02;88.91;100676.44;6579130;27;33684;-85
2022/08/30 06:53:30;;;;;;;7.62;4.93;;;;;;;22.02;90.12;100677.25;6584395;27;33767;-85
2022/08/30 06:56:33;;;;;;;7.95;4.90;;;;;;;21.89;89.13;100672.94;6560690;27;32790;-85
2022/08/30 06:59:38;;;;;;;8.50;4.97;;;;;;;21.84;88.67;100683.78;6580283;27;34427;-85
2022/08/30 07:02:43;;;;;;;8.82;5.47;;;;;;;21.80;89.60;100684.53;6582691;27;35213;-85
2022/08/30 07:05:48;;;;;;;9.73;5.93;;;;;;;21.88;90.87;100686.88;6580007;27;34485;-85
2022/08/30 07:08:51;;;;;;;7.68;5.43;;;;;;;21.80;89.45;100690.03;6562893;27;32518;-85
2022/08/30 07:12:02;;;;;;;7.68;5.45;;;;;;;21.84;87.42;100694.75;6579610;27;33967;-85
2022/08/30 07:15:06;;;;;;;9.18;5.60;;;;;;;21.98;85.82;100698.03;6581044;27;34498;-85
2022/08/30 07:21:38;;;;;;;8.02;5.18;;;;;;;22.06;84.98;100697.66;6579665;27;34454;-88
2022/08/30 07:24:42;;;;;;;6.30;5.05;;;;;;;22.11;84.87;100697.75;6579696;27;35300;-90
2022/08/30 07:27:45;;;;;;;7.72;4.85;;;;;;;22.13;83.64;100697.50;6579615;27;33711;-86
2022/08/30 07:30:47;;;;;;;8.20;5.40;;;;;;;22.29;83.66;100704.09;6559525;27;32737;-86
2022/08/30 07:33:51;;;;;;;9.10;5.12;;;;;;;22.48;80.99;100704.72;6559661;27;32463;-85
2022/08/30 07:36:53;;;;;;;10.25;5.50;;;;;;;22.66;81.36;100703.62;6559547;27;32624;-86
2022/08/30 07:39:56;;;;;;;8.77;5.07;;;;;;;22.76;81.37;100706.56;6558962;27;33175;-85
2022/08/30 07:43:01;;;;;;;6.45;4.97;;;;;;;22.80;77.95;100707.69;6580460;27;33781;-86
2022/08/30 07:46:06;;;;;;;4.80;4.28;;;;;;;22.87;78.52;100709.19;6579080;27;34912;-85
2022/08/30 07:49:10;;;;;;;6.10;4.53;;;;;;;23.05;74.84;100707.28;6579419;27;33923;-85
2022/08/30 07:52:13;;;;;;;4.95;4.32;;;;;;;23.18;74.78;100717.06;6559385;27;32362;-85
2022/08/30 07:55:16;;;;;;;5.28;4.20;;;;;;;23.40;70.90;100717.09;6579536;27;33816;-85
2022/08/30 07:58:19;;;;;;;5.05;4.10;;;;;;;23.63;68.29;100713.25;6579297;27;34274;-85
2022/08/30 08:01:23;;;;;;;5.68;3.97;;;;;;;23.85;68.72;100708.63;6579419;27;34209;-85
2022/08/30 08:04:26;;;;;;;5.80;3.97;;;;;;;24.02;64.15;100707.69;6558799;27;32650;-85
2022/08/30 08:07:30;;;;;;;5.82;4.28;;;;;;;24.25;65.43;100698.28;6579429;27;34430;-85
2022/08/30 08:10:36;;;;;;;6.18;3.92;;;;;;;24.46;66.68;100696.59;6578530;27;33731;-85
2022/08/30 08:13:39;;;;;;;4.93;3.45;;;;;;;24.62;64.68;100703.84;6579063;27;34178;-85
2022/08/30 08:16:55;;;;;;;6.45;3.65;;;;;;;24.98;60.59;100702.22;6579638;27;33715;-85
2022/08/30 08:19:58;;;;;;;5.43;3.72;;;;;;;24.93;60.61;100710.44;6579500;27;34372;-85
2022/08/30 08:23:02;;;;;;;4.18;3.53;;;;;;;25.21;59.25;100700.97;6579775;27;34108;-85
2022/08/30 08:26:04;;;;;;;4.43;3.60;;;;;;;25.46;61.43;100707.72;6579190;27;33941;-85
2022/08/30 08:29:08;;;;;;;7.07;3.70;;;;;;;25.35;56.92;100704.06;6578522;27;34003;-85
2022/08/30 08:32:11;;;;;;;7.07;3.80;;;;;;;25.12;58.06;100708.88;6578832;27;34829;-85
2022/08/30 08:35:15;;;;;;;6.95;3.58;;;;;;;25.28;60.21;100711.78;6578145;27;34066;-85
2022/08/30 08:38:18;;;;;;;5.12;3.90;;;;;;;25.31;59.32;100701.03;6579656;27;34227;-85
2022/08/30 08:41:46;;;;;;;7.50;3.80;;;;;;;25.10;60.38;100704.75;6557904;27;34451;-85
2022/08/30 08:44:53;;;;;;;6.17;3.60;;;;;;;25.33;57.78;100707.13;6557929;27;32851;-85
2022/08/30 08:48:17;;;;;;;7.90;3.65;;;;;;;25.39;57.81;100713.50;6556949;27;33679;-85
2022/08/30 08:54:57;;;;;;;4.37;3.60;;;;;;;25.81;55.43;100696.00;6558506;27;34054;-85
2022/08/30 08:58:01;;;;;;;5.28;4.07;;;;;;;25.66;56.05;100691.25;6559688;27;33018;-85
2022/08/30 09:01:06;;;;;;;5.75;4.00;;;;;;;25.49;56.22;100696.97;6562770;27;32428;-85
2022/08/30 09:04:18;;;;;;;5.55;3.78;;;;;;;25.59;57.10;100698.13;6569204;27;32725;-85
2022/08/30 09:07:26;;;;;;;5.28;3.65;;;;;;;25.94;57.86;100689.97;6578061;27;33622;-85
2022/08/30 09:10:31;;;;;;;3.65;3.30;;;;;;;26.33;51.71;100689.50;6558285;27;33060;-85
2022/08/30 09:13:53;;;;;;;5.43;3.58;;;;;;;26.12;52.60;100696.94;6578708;27;34294;-85
2022/08/30 09:17:00;;;;;;;4.05;3.33;;;;;;;26.44;50.97;100684.78;6562724;27;32490;-85
2022/08/30 09:20:05;;;;;;;5.20;3.45;;;;;;;26.83;52.65;100681.47;6581802;27;34086;-85
2022/08/30 09:23:28;;;;;;;4.37;3.40;;;;;;;27.23;48.56;100676.97;6578863;27;34415;-85
2022/08/30 09:26:35;;;;;;;4.47;3.05;;;;;;;27.83;45.57;100680.59;6558646;27;32757;-85
2022/08/30 09:29:50;;;;;;;4.85;3.17;;;;;;;27.93;44.69;100675.00;6578625;27;34479;-85
2022/08/30 09:33:03;;;;;;;5.45;3.33;;;;;;;28.06;46.06;100669.94;6558817;27;32733;-85
2022/08/30 09:36:21;;;;;;;4.82;3.60;;;;;;;27.81;45.16;100660.69;6559048;27;32645;-89
2022/08/30 09:39:30;;;;;;;6.00;3.40;;;;;;;27.88;44.84;100665.91;6582159;27;33612;-86
2022/08/30 09:42:32;;;;;;;3.72;3.42;;;;;;;28.05;46.22;100660.78;6583231;27;34173;-85
2022/08/30 09:45:41;;;;;;;5.25;3.30;;;;;;;28.10;46.15;100663.53;6568991;27;32406;-85
2022/08/30 09:48:44;;;;;;;7.20;3.90;;;;;;;28.16;44.62;100654.06;6573843;27;33131;-85
2022/08/30 09:51:59;;;;;;;6.43;3.90;;;;;;;28.13;44.68;100654.66;6570937;27;32467;-85
2022/08/30 09:55:26;;;;;;;5.35;3.60;;;;;;;28.22;46.74;100658.44;6582071;27;34762;-86
2022/08/30 09:58:55;;;;;;;6.05;3.70;;;;;;;28.19;44.17;100645.19;6581210;27;34351;-86
2022/08/30 10:02:35;;;;;;;3.20;2.90;;;;;;;28.26;45.52;100631.84;6597715;27;34573;-86
2022/08/30 10:05:57;;;;;;;5.00;3.58;;;;;;;28.17;46.78;100641.06;6577359;27;32994;-85
2022/08/30 10:09:35;;;;;;;4.25;3.25;;;;;;;27.92;47.89;100636.56;6561561;27;32827;-90
2022/08/30 10:13:16;;;;;;;5.57;3.30;;;;;;;27.85;45.66;100627.72;6581858;27;32937;-86
2022/08/30 10:16:34;;;;;;;7.03;3.70;;;;;;;28.12;46.77;100635.56;6581679;27;33439;-86
2022/08/30 10:20:07;;;;;;;3.45;3.12;;;;;;;28.56;45.65;100626.34;6582961;27;32974;-86
2022/08/30 10:23:23;;;;;;;3.80;3.30;;;;;;;29.07;45.09;100636.91;6561337;27;32845;-86
2022/08/30 10:26:37;;;;;;;3.77;3.30;;;;;;;28.87;42.55;100635.16;6560990;27;33823;-86
2022/08/30 10:29:58;;;;;;;5.53;3.53;;;;;;;28.99;44.43;100627.28;6580907;27;34716;-86
2022/08/30 10:33:09;;;;;;;5.53;3.22;;;;;;;29.46;43.00;100624.78;6580232;27;34006;-89
2022/08/30 10:36:13;;;;;;;7.12;4.07;;;;;;;29.10;42.40;100617.72;6560521;27;32333;-86
2022/08/30 10:39:24;;;;;;;4.90;4.05;;;;;;;29.21;42.46;100618.44;6560677;27;32900;-86
2022/08/30 10:42:32;;;;;;;7.65;3.80;;;;;;;29.36;44.77;100615.44;6581061;27;33462;-86
2022/08/30 10:45:45;;;;;;;6.15;3.15;;;;;;;29.38;43.19;100616.00;6578208;27;34456;-86
2022/08/30 10:48:48;;;;;;;6.28;3.87;;;;;;;29.13;41.74;100614.41;6560479;27;32361;-85
2022/08/30 10:52:11;;;;;;;7.05;4.12;;;;;;;29.13;42.78;100608.84;6559732;27;32406;-85
2022/08/30 10:55:43;;;;;;;5.45;3.83;;;;;;;29.57;42.78;100602.16;6579317;27;34544;-85
2022/08/30 10:58:53;;;;;;;6.22;3.72;;;;;;;29.82;41.43;100594.59;6559534;27;32430;-85
2022/08/30 11:02:27;;;;;;;4.72;3.50;;;;;;;30.09;39.51;100599.41;6559673;27;33028;-85
2022/08/30 11:06:04;;;;;;;5.25;3.65;;;;;;;30.03;39.91;100590.34;6579302;27;34110;-85
2022/08/30 11:09:25;;;;;;;5.28;3.90;;;;;;;30.49;39.15;100583.19;6559849;27;32689;-85
2022/08/30 11:12:32;;;;;;;5.60;4.00;;;;;;;30.90;37.63;100588.81;6580193;27;35455;-85
2022/08/30 11:15:58;;;;;;;6.17;3.50;;;;;;;30.49;38.35;100577.62;6560891;27;34146;-85
2022/08/30 11:19:12;;;;;;;5.72;3.80;;;;;;;31.13;37.57;100575.81;6561694;27;33640;-86
2022/08/30 11:22:23;;;;;;;4.97;3.70;;;;;;;31.91;39.16;100580.50;6560709;27;33976;-85
2022/08/30 11:25:50;;;;;;;4.15;3.20;;;;;;;32.04;35.50;100582.41;6587268;27;33979;-84
2022/08/30 11:29:01;;;;;;;4.22;3.40;;;;;;;32.69;36.11;100572.63;6577622;27;32873;-85
2022/08/30 11:32:16;;;;;;;4.65;3.35;;;;;;;33.07;34.16;100570.13;6598873;27;34396;-85
2022/08/30 11:35:54;;;;;;;4.15;3.25;;;;;;;33.51;34.23;100559.03;6578334;27;32286;-86
2022/08/30 11:39:00;;;;;;;5.15;3.58;;;;;;;34.01;33.99;100550.16;6490833;27;33880;-86
2022/08/30 11:42:25;;;;;;;4.50;3.28;;;;;;;34.14;30.75;100545.53;6582978;27;34303;-86
2022/08/30 11:45:34;;;;;;;3.78;3.40;;;;;;;35.37;30.99;100539.88;6582127;27;34100;-86
2022/08/30 11:48:48;;;;;;;3.17;2.75;;;;;;;36.14;30.31;100539.53;6560019;27;33270;-86
2022/08/30 11:52:10;;;;;;;4.03;2.90;;;;;;;36.40;30.20;100530.81;6560288;27;33298;-86
2022/08/30 11:56:01;;;;;;;5.10;2.80;;;;;;;37.14;28.97;100537.25;6578929;27;34828;-86
2022/08/30 11:59:25;;;;;;;2.97;2.55;;;;;;;37.96;26.20;100527.66;6566337;27;33606;-86
2022/08/30 12:02:45;;;;;;;3.85;2.83;;;;;;;38.15;26.18;100515.72;6578751;27;34553;-86
2022/08/30 12:05:54;;;;;;;3.30;2.70;;;;;;;38.66;26.86;100506.56;6559200;27;32597;-86
2022/08/30 12:09:00;;;;;;;3.42;2.80;;;;;;;40.36;22.50;100519.00;6578656;27;35059;-86
2022/08/30 12:12:32;;;;;;;3.10;2.80;;;;;;;39.24;24.64;100520.78;6578330;27;34107;-87
2022/08/30 12:16:13;;;;;;;3.45;2.35;;;;;;;39.29;23.36;100512.06;6570921;27;35051;-86
2022/08/30 12:19:19;;;;;;;2.95;2.70;;;;;;;39.05;23.90;100501.84;6578740;27;34208;-86
2022/08/30 12:22:22;;;;;;;4.35;2.80;;;;;;;39.42;24.83;100493.84;6558627;27;33151;-86
2022/08/30 12:25:30;;;;;;;4.40;2.80;;;;;;;40.69;24.27;100492.97;6580200;27;33735;-86
2022/08/30 12:28:33;;;;;;;5.72;2.47;;;;;;;40.94;21.63;100489.69;6558233;27;32595;-84
2022/08/30 12:31:52;;;;;;;3.72;2.95;;;;;;;39.41;23.99;100480.13;6589614;27;34235;-84
2022/08/30 12:34:58;;;;;;;4.18;3.05;;;;;;;40.36;22.14;100485.13;6581101;27;33568;-84
2022/08/30 12:38:04;;;;;;;2.87;2.67;;;;;;;40.92;21.71;100475.13;6578718;27;33745;-84
2022/08/30 12:41:07;;;;;;;7.47;2.95;;;;;;;40.58;21.49;100472.19;6558812;27;33246;-84
2022/08/30 12:44:15;;;;;;;4.62;3.00;;;;;;;39.83;22.58;100460.44;6580080;27;34453;-84
2022/08/30 12:47:31;;;;;;;3.80;2.83;;;;;;;38.64;23.08;100456.25;6558461;27;32380;-86
2022/08/30 12:50:41;;;;;;;3.00;2.70;;;;;;;35.72;27.50;100458.38;6579186;27;34104;-87
2022/08/30 12:53:45;;;;;;;4.82;3.17;;;;;;;33.89;30.70;100452.25;6578611;27;33709;-87
2022/08/30 12:57:00;;;;;;;5.00;3.05;;;;;;;32.66;35.01;100464.53;6578614;27;33581;-86
2022/08/30 13:00:27;;;;;;;4.12;3.00;;;;;;;33.96;30.81;100456.19;6578567;27;34014;-86
2022/08/30 13:03:35;;;;;;;5.63;2.93;;;;;;;36.70;26.84;100452.06;6581589;27;33637;-87
2022/08/30 13:06:42;;;;;;;5.50;3.00;;;;;;;39.15;24.41;100447.78;6580939;27;34826;-86
2022/08/30 13:09:45;;;;;;;3.08;2.60;;;;;;;39.83;22.88;100445.53;6590187;27;33650;-87
2022/08/30 13:13:03;;;;;;;3.15;2.85;;;;;;;36.88;26.53;100450.63;6578954;27;33577;-86
2022/08/30 13:16:30;;;;;;;3.22;2.60;;;;;;;35.35;28.61;100447.00;6559023;27;32937;-86
2022/08/30 13:19:42;;;;;;;3.20;2.75;;;;;;;35.98;28.24;100440.44;6558424;27;32435;-86
2022/08/30 13:23:08;;;;;;;4.12;3.20;;;;;;;34.57;29.94;100438.34;6556309;27;33265;-86
2022/08/30 13:26:11;;;;;;;5.53;3.28;;;;;;;32.74;32.97;100435.84;6558172;27;32480;-86
2022/08/30 13:29:20;;;;;;;4.40;3.42;;;;;;;31.94;35.02;100437.81;6577884;27;33973;-90
2022/08/30 13:32:23;;;;;;;3.20;2.90;;;;;;;31.13;35.80;100433.97;6557772;27;32642;-87
2022/08/30 13:35:28;;;;;;;3.67;3.30;;;;;;;30.48;36.84;100434.31;6578380;27;33976;-86
2022/08/30 13:38:31;;;;;;;3.33;3.03;;;;;;;30.66;37.65;100421.41;6559698;27;32324;-86
2022/08/30 13:41:34;;;;;;;4.47;3.15;;;;;;;33.25;32.37;100423.09;6558765;27;33287;-86
2022/08/30 13:44:37;;;;;;;5.35;3.60;;;;;;;32.28;33.86;100414.88;6558248;27;32941;-86
2022/08/30 13:47:45;;;;;;;4.87;3.35;;;;;;;31.64;35.49;100426.34;6559288;27;32111;-86
2022/08/30 13:50:48;;;;;;;6.00;3.42;;;;;;;30.83;37.04;100426.31;6559470;27;32340;-86
2022/08/30 13:53:51;;;;;;;7.05;3.50;;;;;;;30.21;39.75;100418.44;6581768;27;34315;-86
2022/08/30 13:56:55;;;;;;;7.87;3.92;;;;;;;30.01;40.13;100414.94;6558512;27;32950;-86
2022/08/30 13:59:58;;;;;;;6.12;3.40;;;;;;;30.55;40.06;100415.25;6579169;27;34110;-86
2022/08/30 14:03:01;;;;;;;9.02;3.75;;;;;;;30.79;40.57;100403.91;6559044;27;33621;-86
2022/08/30 14:06:05;;;;;;;4.60;3.37;;;;;;;30.37;40.71;100417.00;6559260;27;34545;-86
2022/08/30 14:09:29;;;;;;;3.37;3.08;;;;;;;29.97;40.67;100413.87;6569533;27;33231;-86
2022/08/30 14:12:32;;;;;;;6.47;3.53;;;;;;;30.44;40.23;100406.28;6595766;27;34334;-86
2022/08/30 14:15:56;;;;;;;8.65;3.20;;;;;;;30.58;41.33;100397.94;6567378;27;33921;-86
2022/08/30 14:19:19;;;;;;;4.60;3.25;;;;;;;30.22;40.86;100397.91;6578126;27;34174;-86
2022/08/30 14:22:21;;;;;;;6.97;3.50;;;;;;;30.24;38.84;100399.19;6557763;27;32385;-86
2022/08/30 14:25:27;;;;;;;3.62;3.28;;;;;;;30.28;41.83;100394.69;6578457;27;34085;-86
2022/08/30 14:28:30;;;;;;;4.62;3.30;;;;;;;30.16;40.35;100388.81;6559752;27;32355;-86
2022/08/30 14:31:33;;;;;;;4.37;3.08;;;;;;;29.73;43.49;100386.31;6559694;27;32962;-86
2022/08/30 14:34:35;;;;;;;4.87;3.28;;;;;;;29.29;42.71;100381.22;6580359;27;34571;-86
2022/08/30 14:37:38;;;;;;;4.35;3.50;;;;;;;29.12;45.21;100388.16;6581110;27;34062;-86
2022/08/30 14:40:41;;;;;;;3.62;3.30;;;;;;;28.91;46.10;100379.28;6579769;27;34447;-86
2022/08/30 14:43:44;;;;;;;4.70;3.67;;;;;;;28.69;44.44;100385.47;6559548;27;33744;-86
2022/08/30 14:46:47;;;;;;;3.37;3.08;;;;;;;28.48;49.15;100382.13;6579261;27;34479;-86
2022/08/30 14:49:56;;;;;;;4.03;3.58;;;;;;;28.23;48.61;100380.47;6579317;27;34900;-87
2022/08/30 14:52:59;;;;;;;4.00;3.60;;;;;;;27.97;48.66;100384.69;6579802;27;34908;-90
2022/08/30 14:56:07;;;;;;;5.18;3.75;;;;;;;27.87;47.62;100385.59;6559655;27;33590;-91
2022/08/30 14:59:10;;;;;;;7.72;3.87;;;;;;;27.89;51.84;100390.84;6579081;27;33980;-87
2022/08/30 15:02:15;;;;;;;7.40;3.50;;;;;;;27.85;47.94;100381.47;6559666;27;32998;-87
2022/08/30 15:05:36;;;;;;;5.75;3.58;;;;;;;27.84;50.88;100380.66;6580042;27;34014;-87
2022/08/30 15:08:40;;;;;;;4.97;3.60;;;;;;;27.81;52.71;100376.53;6561056;27;32717;-86
2022/08/30 15:11:43;;;;;;;4.22;3.40;;;;;;;27.61;48.71;100376.69;6560476;27;33750;-87
2022/08/30 15:14:48;;;;;;;6.62;3.42;;;;;;;27.56;50.39;100379.53;6580133;27;33962;-87
2022/08/30 15:17:51;;;;;;;3.92;3.33;;;;;;;27.53;52.42;100380.13;6579999;27;33925;-87
2022/08/30 15:20:54;;;;;;;3.50;3.20;;;;;;;27.50;48.84;100375.16;6579662;27;34034;-86
2022/08/30 15:23:58;;;;;;;3.50;3.20;;;;;;;27.55;51.35;100372.34;6560568;27;32553;-86
2022/08/30 15:27:03;;;;;;;4.15;3.62;;;;;;;27.61;47.72;100370.34;6579643;27;34136;-86
2022/08/30 15:30:08;;;;;;;5.25;3.50;;;;;;;27.53;47.94;100367.09;6579221;27;34926;-86
2022/08/30 15:33:12;;;;;;;3.75;3.35;;;;;;;27.44;48.68;100371.63;6579230;27;34813;-87
2022/08/30 15:36:16;;;;;;;3.60;3.30;;;;;;;27.41;49.15;100365.81;6558961;27;33447;-87
2022/08/30 15:39:23;;;;;;;4.00;3.50;;;;;;;27.45;48.60;100367.72;6579852;27;34084;-86
2022/08/30 15:42:26;;;;;;;5.30;3.37;;;;;;;27.39;48.21;100363.38;6559604;27;32879;-87
2022/08/30 15:45:29;;;;;;;3.55;3.20;;;;;;;27.34;48.06;100360.62;6579110;27;33762;-86
2022/08/30 15:48:31;;;;;;;6.22;3.47;;;;;;;27.32;48.63;100372.00;6582792;27;33695;-86
2022/08/30 15:51:35;;;;;;;5.15;3.35;;;;;;;27.45;49.70;100369.69;6568193;27;32941;-86
2022/08/30 15:54:47;;;;;;;4.22;3.70;;;;;;;27.48;49.09;100358.03;6559952;27;32406;-87
2022/08/30 15:57:50;;;;;;;4.12;3.28;;;;;;;27.52;50.75;100364.62;6579806;27;33891;-87
2022/08/30 16:00:52;;;;;;;4.10;3.55;;;;;;;27.54;50.17;100367.94;6560039;27;33789;-86
2022/08/30 16:03:55;;;;;;;3.60;2.90;;;;;;;27.44;48.09;100370.81;6578895;27;34940;-87
2022/08/30 16:06:59;;;;;;;3.95;3.40;;;;;;;27.40;48.92;100369.72;6559245;27;33263;-87
2022/08/30 16:10:02;;;;;;;3.40;3.10;;;;;;;27.21;49.14;100361.31;6564030;27;32764;-86
2022/08/30 16:13:05;;;;;;;3.72;3.03;;;;;;;27.18;49.49;100362.72;6594830;27;34312;-86
2022/08/30 16:16:11;;;;;;;3.03;2.80;;;;;;;27.18;48.93;100362.72;6587412;27;35377;-87
2022/08/30 16:19:14;;;;;;;5.82;3.42;;;;;;;27.11;48.55;100359.41;6560484;27;33734;-86
2022/08/30 16:22:17;;;;;;;4.75;3.30;;;;;;;26.96;49.32;100360.34;6581572;27;34054;-86
2022/08/30 16:25:24;;;;;;;3.75;3.33;;;;;;;26.90;49.31;100353.22;6559767;27;32685;-86
2022/08/30 16:28:41;;;;;;;5.65;3.45;;;;;;;26.80;49.02;100351.38;6560555;27;33853;-90
2022/08/30 16:31:45;;;;;;;4.40;3.25;;;;;;;26.77;49.33;100351.94;6559758;27;34195;-91
2022/08/30 16:34:49;;;;;;;4.28;3.58;;;;;;;26.73;49.20;100350.84;6559379;27;33412;-87
2022/08/30 16:37:51;;;;;;;4.47;3.33;;;;;;;26.71;49.58;100350.31;6558896;27;32517;-87
2022/08/30 16:40:55;;;;;;;3.72;3.25;;;;;;;26.66;49.02;100347.59;6579277;27;34017;-87
2022/08/30 16:43:58;;;;;;;3.83;3.10;;;;;;;26.61;49.18;100351.19;6559340;27;32421;-86
2022/08/30 16:47:01;;;;;;;5.62;3.60;;;;;;;26.59;50.67;100347.06;6559640;27;33095;-87
2022/08/30 16:50:04;;;;;;;4.28;3.30;;;;;;;26.49;56.77;100349.88;6560658;27;33330;-87
2022/08/30 16:53:08;;;;;;;3.12;2.80;;;;;;;26.37;51.48;100355.72;6580004;27;34288;-87
2022/08/30 16:56:23;;;;;;;3.47;2.83;;;;;;;26.33;49.04;100349.97;6579873;27;34133;-87
2022/08/30 16:59:26;;;;;;;3.58;3.25;;;;;;;26.27;49.49;100358.53;6579991;27;33781;-87
2022/08/30 17:02:29;;;;;;;3.90;3.05;;;;;;;26.20;50.92;100356.06;6579426;27;34248;-87
2022/08/30 17:05:35;;;;;;;3.15;2.90;;;;;;;26.08;51.21;100356.41;6558944;27;32367;-86
2022/08/30 17:08:37;;;;;;;3.25;2.95;;;;;;;26.00;51.75;100363.34;6559187;27;33359;-87
2022/08/30 17:11:41;;;;;;;5.18;3.00;;;;;;;25.96;51.65;100364.16;6559057;27;32343;-86
2022/08/30 17:14:44;;;;;;;3.95;2.83;;;;;;;25.89;48.56;100367.22;6579906;27;33675;-87
2022/08/30 17:17:49;;;;;;;6.45;2.50;;;;;;;25.82;49.10;100369.44;6558755;27;33979;-87
2022/08/30 17:20:54;;;;;;;5.10;2.85;;;;;;;25.70;50.33;100377.97;6559323;27;33313;-87
2022/08/30 17:23:58;;;;;;;5.12;2.78;;;;;;;25.66;49.84;100374.16;6558821;27;33743;-86
2022/08/30 17:27:05;;;;;;;4.50;2.67;;;;;;;25.55;49.51;100376.06;6579052;27;33602;-86
2022/08/30 17:30:09;;;;;;;4.12;2.47;;;;;;;25.45;49.05;100378.84;6558571;27;32409;-86
2022/08/30 17:33:13;;;;;;;3.62;2.80;;;;;;;25.39;51.12;100382.72;6558986;27;31929;-86
2022/08/30 17:36:19;;;;;;;4.18;3.08;;;;;;;25.27;49.56;100383.00;6558900;27;33716;-86
2022/08/30 17:39:24;;;;;;;3.83;2.28;;;;;;;25.22;49.97;100379.41;6558210;27;35140;-86
2022/08/30 17:42:27;;;;;;;3.08;2.78;;;;;;;25.12;50.45;100388.47;6578454;27;34613;-86
2022/08/30 17:45:31;;;;;;;5.70;2.65;;;;;;;24.99;50.63;100389.81;6558347;27;32697;-86
2022/08/30 17:48:35;;;;;;;6.20;3.25;;;;;;;24.92;51.13;100400.25;6580625;27;34270;-85
2022/08/30 17:51:41;;;;;;;3.37;2.28;;;;;;;24.86;52.53;100401.34;6579802;27;35030;-86
2022/08/30 17:54:44;;;;;;;3.60;2.78;;;;;;;24.75;55.51;100408.78;6578650;27;33893;-86
2022/08/30 17:57:46;;;;;;;3.95;3.20;;;;;;;24.60;56.35;100408.72;6558190;27;32875;-86
2022/08/30 18:01:02;;;;;;;3.62;2.90;;;;;;;24.51;52.61;100415.84;6558973;27;32850;-86
2022/08/30 18:04:05;;;;;;;3.58;3.28;;;;;;;24.41;58.89;100422.12;6559057;27;33154;-86
2022/08/30 18:07:09;;;;;;;4.93;2.80;;;;;;;24.31;53.92;100419.34;6579324;27;34774;-86
2022/08/30 18:10:13;;;;;;;2.90;2.60;;;;;;;24.27;55.98;100423.69;6580125;27;34127;-90
2022/08/30 18:13:17;;;;;;;4.65;2.95;;;;;;;24.16;58.62;100431.91;6579330;27;34022;-91
